CheckWX is a tool to help pilots better visualize weather data.  It is not intended as a substitute for an official pre-flight weather briefing.

17:30:25 UTC

EGKB METAR
London Biggin Hill Airport
London, United Kingdom
Current

40 mins ago

EGKB 241650Z 28011KT 240V310 CAVOK 12/M00 Q1028
Observed
Mar-24 @ 16:50 UTC
Wind
  • 280° at 11 KTS
Visibility
10,000+ meters
Flight Rules
VFR
Cloud Levels
  • Clear skies
Temperature
12°C / 54°F
Dewpoint
C / 32°F
Humidity
44%
Altimeter
30.35" Hg
Pressure
1027.92 hPa
Previous

1 hour ago

EGKB 241620Z 28011KT 250V320 CAVOK 12/M01 Q1028
Observed
Mar-24 @ 16:20 UTC
Wind
  • 280° at 11 KTS
Visibility
10,000+ meters
Flight Rules
VFR
Cloud Levels
  • Clear skies
Temperature
12°C / 54°F
Dewpoint
-1°C / 30°F
Humidity
41%
Altimeter
30.35" Hg
Pressure
1027.92 hPa
Previous

2 hours ago

EGKB 241550Z 29010KT 250V320 CAVOK 12/00 Q1028
Observed
Mar-24 @ 15:50 UTC
Wind
  • 290° at 10 KTS
Visibility
10,000+ meters
Flight Rules
VFR
Cloud Levels
  • Clear skies
Temperature
12°C / 54°F
Dewpoint
C / 32°F
Humidity
44%
Altimeter
30.35" Hg
Pressure
1027.92 hPa